sensor_id;sensor_type;location;lat;lon;timestamp;pressure;altitude;pressure_sealevel;temperature;humidity
73106;BME280;61559;50.476;15.588;2023-06-10T00:01:03;97402.48;;;16.21;75.88
73106;BME280;61559;50.476;15.588;2023-06-10T00:03:54;97406.04;;;16.20;75.61
73106;BME280;61559;50.476;15.588;2023-06-10T00:06:25;97403.81;;;16.17;75.89
73106;BME280;61559;50.476;15.588;2023-06-10T00:08:56;97405.23;;;16.12;75.97
73106;BME280;61559;50.476;15.588;2023-06-10T00:11:27;97402.23;;;16.07;76.18
73106;BME280;61559;50.476;15.588;2023-06-10T00:13:58;97404.16;;;16.03;76.15
73106;BME280;61559;50.476;15.588;2023-06-10T00:16:32;97402.55;;;16.00;76.23
73106;BME280;61559;50.476;15.588;2023-06-10T00:19:04;97405.08;;;15.97;76.28
73106;BME280;61559;50.476;15.588;2023-06-10T00:21:35;97405.86;;;15.91;76.38
73106;BME280;61559;50.476;15.588;2023-06-10T00:24:10;97409.72;;;15.87;76.67
73106;BME280;61559;50.476;15.588;2023-06-10T00:26:42;97414.33;;;15.84;76.81
73106;BME280;61559;50.476;15.588;2023-06-10T00:29:14;97412.10;;;15.84;76.68
73106;BME280;61559;50.476;15.588;2023-06-10T00:31:46;97410.39;;;15.87;76.71
73106;BME280;61559;50.476;15.588;2023-06-10T00:34:17;97411.63;;;15.94;76.67
73106;BME280;61559;50.476;15.588;2023-06-10T00:36:49;97412.35;;;16.01;76.34
73106;BME280;61559;50.476;15.588;2023-06-10T00:39:20;97409.14;;;16.07;76.19
73106;BME280;61559;50.476;15.588;2023-06-10T00:41:51;97409.23;;;16.13;76.06
73106;BME280;61559;50.476;15.588;2023-06-10T00:44:22;97407.12;;;16.19;76.00
73106;BME280;61559;50.476;15.588;2023-06-10T00:46:53;97405.55;;;16.22;75.87
73106;BME280;61559;50.476;15.588;2023-06-10T00:49:25;97405.91;;;16.26;75.59
73106;BME280;61559;50.476;15.588;2023-06-10T00:51:57;97406.05;;;16.30;75.63
73106;BME280;61559;50.476;15.588;2023-06-10T00:54:29;97406.61;;;16.32;75.54
73106;BME280;61559;50.476;15.588;2023-06-10T00:57:02;97403.45;;;16.34;75.38
73106;BME280;61559;50.476;15.588;2023-06-10T00:59:33;97400.98;;;16.37;75.05
73106;BME280;61559;50.476;15.588;2023-06-10T01:02:06;97398.73;;;16.41;75.14
73106;BME280;61559;50.476;15.588;2023-06-10T01:04:39;97400.30;;;16.46;74.60
73106;BME280;61559;50.476;15.588;2023-06-10T01:07:16;97398.80;;;16.51;74.48
73106;BME280;61559;50.476;15.588;2023-06-10T01:09:55;97400.06;;;16.55;74.05
73106;BME280;61559;50.476;15.588;2023-06-10T01:12:37;97404.84;;;16.61;74.08
73106;BME280;61559;50.476;15.588;2023-06-10T01:15:11;97407.77;;;16.66;73.63
73106;BME280;61559;50.476;15.588;2023-06-10T01:17:56;97410.64;;;16.69;73.51
73106;BME280;61559;50.476;15.588;2023-06-10T01:20:32;97410.34;;;16.73;73.53
73106;BME280;61559;50.476;15.588;2023-06-10T01:23:04;97409.17;;;16.75;73.23
73106;BME280;61559;50.476;15.588;2023-06-10T01:25:39;97406.74;;;16.77;73.18
73106;BME280;61559;50.476;15.588;2023-06-10T01:28:24;97404.38;;;16.77;73.24
73106;BME280;61559;50.476;15.588;2023-06-10T01:31:03;97404.38;;;16.77;73.20
73106;BME280;61559;50.476;15.588;2023-06-10T01:33:43;97404.01;;;16.77;73.07
73106;BME280;61559;50.476;15.588;2023-06-10T01:36:17;97405.04;;;16.77;72.86
73106;BME280;61559;50.476;15.588;2023-06-10T01:38:49;97408.05;;;16.79;72.77
73106;BME280;61559;50.476;15.588;2023-06-10T01:41:21;97406.49;;;16.79;72.56
73106;BME280;61559;50.476;15.588;2023-06-10T01:43:54;97405.09;;;16.80;72.40
73106;BME280;61559;50.476;15.588;2023-06-10T01:46:25;97407.25;;;16.80;72.50
73106;BME280;61559;50.476;15.588;2023-06-10T01:48:57;97407.35;;;16.82;72.56
73106;BME280;61559;50.476;15.588;2023-06-10T01:51:28;97407.63;;;16.81;72.58
73106;BME280;61559;50.476;15.588;2023-06-10T01:54:01;97406.20;;;16.80;72.55
73106;BME280;61559;50.476;15.588;2023-06-10T01:56:32;97410.59;;;16.80;72.24
73106;BME280;61559;50.476;15.588;2023-06-10T01:59:03;97414.52;;;16.79;72.31
73106;BME280;61559;50.476;15.588;2023-06-10T02:01:35;97417.39;;;16.78;72.56
73106;BME280;61559;50.476;15.588;2023-06-10T02:04:06;97416.19;;;16.77;72.45
73106;BME280;61559;50.476;15.588;2023-06-10T02:06:37;97420.98;;;16.75;72.48
73106;BME280;61559;50.476;15.588;2023-06-10T02:09:09;97424.63;;;16.74;72.69
73106;BME280;61559;50.476;15.588;2023-06-10T02:11:40;97422.71;;;16.72;72.70
73106;BME280;61559;50.476;15.588;2023-06-10T02:14:13;97423.24;;;16.72;72.33
73106;BME280;61559;50.476;15.588;2023-06-10T02:16:44;97421.91;;;16.71;72.56
73106;BME280;61559;50.476;15.588;2023-06-10T02:19:16;97425.55;;;16.72;72.82
73106;BME280;61559;50.476;15.588;2023-06-10T02:21:51;97425.39;;;16.71;72.77
73106;BME280;61559;50.476;15.588;2023-06-10T02:24:22;97426.88;;;16.72;72.88
73106;BME280;61559;50.476;15.588;2023-06-10T02:26:53;97423.48;;;16.73;72.80
73106;BME280;61559;50.476;15.588;2023-06-10T02:29:25;97431.10;;;16.76;72.81
73106;BME280;61559;50.476;15.588;2023-06-10T02:31:56;97432.62;;;16.77;72.88
73106;BME280;61559;50.476;15.588;2023-06-10T02:34:27;97433.16;;;16.79;72.80
73106;BME280;61559;50.476;15.588;2023-06-10T02:36:58;97438.10;;;16.81;72.67
73106;BME280;61559;50.476;15.588;2023-06-10T02:39:30;97438.88;;;16.83;72.64
73106;BME280;61559;50.476;15.588;2023-06-10T02:42:01;97441.05;;;16.84;72.59
73106;BME280;61559;50.476;15.588;2023-06-10T02:44:32;97440.40;;;16.86;72.69
73106;BME280;61559;50.476;15.588;2023-06-10T02:47:04;97439.15;;;16.87;72.57
73106;BME280;61559;50.476;15.588;2023-06-10T02:49:35;97443.86;;;16.88;72.60
73106;BME280;61559;50.476;15.588;2023-06-10T02:52:08;97443.86;;;16.88;72.62
73106;BME280;61559;50.476;15.588;2023-06-10T02:54:40;97445.86;;;16.87;72.95
73106;BME280;61559;50.476;15.588;2023-06-10T02:57:11;97449.05;;;16.87;72.97
73106;BME280;61559;50.476;15.588;2023-06-10T02:59:44;97449.59;;;16.88;73.01
73106;BME280;61559;50.476;15.588;2023-06-10T03:02:15;97449.73;;;16.88;73.16
73106;BME280;61559;50.476;15.588;2023-06-10T03:04:46;97451.23;;;16.88;73.14
73106;BME280;61559;50.476;15.588;2023-06-10T03:07:20;97451.89;;;16.88;73.35
73106;BME280;61559;50.476;15.588;2023-06-10T03:09:51;97453.98;;;16.89;73.32
73106;BME280;61559;50.476;15.588;2023-06-10T03:12:22;97456.80;;;16.87;73.38
73106;BME280;61559;50.476;15.588;2023-06-10T03:14:54;97457.77;;;16.88;73.52
73106;BME280;61559;50.476;15.588;2023-06-10T03:17:25;97457.92;;;16.88;73.51
73106;BME280;61559;50.476;15.588;2023-06-10T03:19:56;97458.15;;;16.89;73.54
73106;BME280;61559;50.476;15.588;2023-06-10T03:22:27;97454.66;;;16.89;73.51
73106;BME280;61559;50.476;15.588;2023-06-10T03:24:59;97455.10;;;16.89;73.54
73106;BME280;61559;50.476;15.588;2023-06-10T03:27:31;97455.61;;;16.88;73.53
73106;BME280;61559;50.476;15.588;2023-06-10T03:30:02;97454.86;;;16.88;73.49
73106;BME280;61559;50.476;15.588;2023-06-10T03:32:37;97458.58;;;16.88;73.45
73106;BME280;61559;50.476;15.588;2023-06-10T03:35:09;97461.41;;;16.88;73.47
73106;BME280;61559;50.476;15.588;2023-06-10T03:37:41;97460.00;;;16.89;73.44
73106;BME280;61559;50.476;15.588;2023-06-10T03:40:13;97456.72;;;16.88;73.47
73106;BME280;61559;50.476;15.588;2023-06-10T03:42:44;97455.55;;;16.89;73.36
73106;BME280;61559;50.476;15.588;2023-06-10T03:45:15;97455.50;;;16.91;73.22
73106;BME280;61559;50.476;15.588;2023-06-10T03:47:47;97452.03;;;16.92;73.33
73106;BME280;61559;50.476;15.588;2023-06-10T03:50:18;97453.33;;;16.94;73.22
73106;BME280;61559;50.476;15.588;2023-06-10T03:52:50;97455.46;;;16.98;73.22
73106;BME280;61559;50.476;15.588;2023-06-10T03:55:21;97455.81;;;17.01;72.92
73106;BME280;61559;50.476;15.588;2023-06-10T03:57:53;97457.83;;;17.07;73.13
73106;BME280;61559;50.476;15.588;2023-06-10T04:00:24;97460.73;;;17.12;72.99
73106;BME280;61559;50.476;15.588;2023-06-10T04:02:55;97460.91;;;17.19;72.86
73106;BME280;61559;50.476;15.588;2023-06-10T04:05:28;97462.77;;;17.24;72.80
73106;BME280;61559;50.476;15.588;2023-06-10T04:07:59;97465.61;;;17.30;72.86
73106;BME280;61559;50.476;15.588;2023-06-10T04:10:32;97467.37;;;17.35;72.60
73106;BME280;61559;50.476;15.588;2023-06-10T04:13:03;97468.52;;;17.38;72.56
73106;BME280;61559;50.476;15.588;2023-06-10T04:15:34;97470.58;;;17.42;72.59
73106;BME280;61559;50.476;15.588;2023-06-10T04:18:06;97471.26;;;17.48;72.54
73106;BME280;61559;50.476;15.588;2023-06-10T04:20:38;97473.42;;;17.53;72.44
73106;BME280;61559;50.476;15.588;2023-06-10T04:23:09;97470.37;;;17.59;72.35
73106;BME280;61559;50.476;15.588;2023-06-10T04:25:40;97474.63;;;17.65;72.41
73106;BME280;61559;50.476;15.588;2023-06-10T04:28:11;97473.95;;;17.68;72.39
73106;BME280;61559;50.476;15.588;2023-06-10T04:30:42;97472.13;;;17.72;72.21
73106;BME280;61559;50.476;15.588;2023-06-10T04:33:14;97469.95;;;17.76;72.30
73106;BME280;61559;50.476;15.588;2023-06-10T04:35:46;97469.09;;;17.78;72.15
73106;BME280;61559;50.476;15.588;2023-06-10T04:38:17;97465.78;;;17.82;72.26
73106;BME280;61559;50.476;15.588;2023-06-10T04:40:48;97468.21;;;17.86;72.49
73106;BME280;61559;50.476;15.588;2023-06-10T04:43:19;97467.42;;;17.88;72.20
73106;BME280;61559;50.476;15.588;2023-06-10T04:45:50;97467.67;;;17.90;72.48
73106;BME280;61559;50.476;15.588;2023-06-10T04:48:21;97472.88;;;17.90;72.53
73106;BME280;61559;50.476;15.588;2023-06-10T04:50:54;97468.42;;;17.91;72.63
73106;BME280;61559;50.476;15.588;2023-06-10T04:53:26;97469.63;;;17.92;72.70
73106;BME280;61559;50.476;15.588;2023-06-10T04:55:58;97468.84;;;17.95;73.18
73106;BME280;61559;50.476;15.588;2023-06-10T04:58:30;97469.73;;;18.00;73.14
73106;BME280;61559;50.476;15.588;2023-06-10T05:01:02;97466.95;;;18.05;73.09
73106;BME280;61559;50.476;15.588;2023-06-10T05:03:33;97469.27;;;18.07;72.85
73106;BME280;61559;50.476;15.588;2023-06-10T05:06:04;97471.98;;;18.09;73.11
73106;BME280;61559;50.476;15.588;2023-06-10T05:08:35;97473.00;;;18.13;72.81
73106;BME280;61559;50.476;15.588;2023-06-10T05:11:06;97475.25;;;18.15;72.44
73106;BME280;61559;50.476;15.588;2023-06-10T05:13:38;97476.62;;;18.17;72.33
73106;BME280;61559;50.476;15.588;2023-06-10T05:16:10;97478.20;;;18.21;72.44
73106;BME280;61559;50.476;15.588;2023-06-10T05:18:41;97480.45;;;18.22;72.57
73106;BME280;61559;50.476;15.588;2023-06-10T05:21:12;97477.30;;;18.21;72.02
73106;BME280;61559;50.476;15.588;2023-06-10T05:23:43;97475.96;;;18.19;71.80
73106;BME280;61559;50.476;15.588;2023-06-10T05:26:14;97476.11;;;18.20;71.65
73106;BME280;61559;50.476;15.588;2023-06-10T05:28:45;97475.16;;;18.22;71.57
73106;BME280;61559;50.476;15.588;2023-06-10T05:31:16;97480.84;;;18.25;71.40
73106;BME280;61559;50.476;15.588;2023-06-10T05:33:48;97479.52;;;18.26;71.16
73106;BME280;61559;50.476;15.588;2023-06-10T05:36:19;97478.46;;;18.25;71.39
73106;BME280;61559;50.476;15.588;2023-06-10T05:38:50;97478.42;;;18.20;71.97
73106;BME280;61559;50.476;15.588;2023-06-10T05:41:21;97479.39;;;18.12;72.88
73106;BME280;61559;50.476;15.588;2023-06-10T05:43:52;97480.70;;;18.03;73.63
73106;BME280;61559;50.476;15.588;2023-06-10T05:46:23;97474.15;;;17.97;74.29
73106;BME280;61559;50.476;15.588;2023-06-10T05:48:55;97474.20;;;17.94;74.88
73106;BME280;61559;50.476;15.588;2023-06-10T05:51:26;97476.65;;;17.94;74.57
73106;BME280;61559;50.476;15.588;2023-06-10T05:53:58;97475.67;;;17.94;74.58
73106;BME280;61559;50.476;15.588;2023-06-10T05:56:30;97477.12;;;17.96;74.89
73106;BME280;61559;50.476;15.588;2023-06-10T05:59:01;97478.55;;;17.98;74.77
73106;BME280;61559;50.476;15.588;2023-06-10T06:01:33;97475.98;;;18.01;74.55
73106;BME280;61559;50.476;15.588;2023-06-10T06:04:04;97476.02;;;18.04;74.47
73106;BME280;61559;50.476;15.588;2023-06-10T06:06:38;97478.08;;;18.08;74.14
73106;BME280;61559;50.476;15.588;2023-06-10T06:09:09;97477.23;;;18.12;73.90
73106;BME280;61559;50.476;15.588;2023-06-10T06:11:40;97480.42;;;18.18;73.96
73106;BME280;61559;50.476;15.588;2023-06-10T06:14:11;97481.88;;;18.24;73.46
73106;BME280;61559;50.476;15.588;2023-06-10T06:16:42;97482.98;;;18.29;73.02
73106;BME280;61559;50.476;15.588;2023-06-10T06:19:14;97487.35;;;18.34;72.35
73106;BME280;61559;50.476;15.588;2023-06-10T06:21:48;97491.51;;;18.40;71.14
73106;BME280;61559;50.476;15.588;2023-06-10T06:24:20;97494.45;;;18.45;70.55
73106;BME280;61559;50.476;15.588;2023-06-10T06:26:51;97493.98;;;18.49;70.36
73106;BME280;61559;50.476;15.588;2023-06-10T06:29:22;97498.20;;;18.53;70.08
73106;BME280;61559;50.476;15.588;2023-06-10T06:31:53;97502.09;;;18.55;69.49
73106;BME280;61559;50.476;15.588;2023-06-10T06:34:24;97503.15;;;18.56;69.66
73106;BME280;61559;50.476;15.588;2023-06-10T06:36:55;97505.11;;;18.58;69.94
73106;BME280;61559;50.476;15.588;2023-06-10T06:39:26;97507.45;;;18.60;69.77
73106;BME280;61559;50.476;15.588;2023-06-10T06:41:57;97509.66;;;18.63;70.37
73106;BME280;61559;50.476;15.588;2023-06-10T06:44:30;97516.70;;;18.67;70.19
73106;BME280;61559;50.476;15.588;2023-06-10T06:47:01;97520.17;;;18.71;69.91
73106;BME280;61559;50.476;15.588;2023-06-10T06:49:32;97524.16;;;18.76;70.34
73106;BME280;61559;50.476;15.588;2023-06-10T06:52:04;97527.34;;;18.81;70.26
73106;BME280;61559;50.476;15.588;2023-06-10T06:54:36;97534.48;;;18.86;69.49
73106;BME280;61559;50.476;15.588;2023-06-10T06:57:07;97541.90;;;18.90;69.71
73106;BME280;61559;50.476;15.588;2023-06-10T06:59:39;97545.00;;;18.96;69.79
73106;BME280;61559;50.476;15.588;2023-06-10T07:02:10;97544.59;;;18.99;69.47
73106;BME280;61559;50.476;15.588;2023-06-10T07:04:41;97542.60;;;19.03;68.72
73106;BME280;61559;50.476;15.588;2023-06-10T07:07:13;97549.04;;;19.05;68.32
73106;BME280;61559;50.476;15.588;2023-06-10T07:09:44;97549.71;;;19.08;68.22
73106;BME280;61559;50.476;15.588;2023-06-10T07:12:16;97554.82;;;19.13;68.58
73106;BME280;61559;50.476;15.588;2023-06-10T07:14:47;97555.35;;;19.22;68.97
73106;BME280;61559;50.476;15.588;2023-06-10T07:17:18;97558.42;;;19.33;68.91
73106;BME280;61559;50.476;15.588;2023-06-10T07:19:49;97554.34;;;19.47;68.24
73106;BME280;61559;50.476;15.588;2023-06-10T07:22:21;97558.54;;;19.67;68.56
73106;BME280;61559;50.476;15.588;2023-06-10T07:24:52;97552.45;;;19.86;68.08
73106;BME280;61559;50.476;15.588;2023-06-10T07:27:24;97553.86;;;20.02;67.74
73106;BME280;61559;50.476;15.588;2023-06-10T07:29:55;97558.84;;;20.13;66.40
73106;BME280;61559;50.476;15.588;2023-06-10T07:32:26;97560.73;;;20.17;66.40
73106;BME280;61559;50.476;15.588;2023-06-10T07:34:57;97560.61;;;20.24;66.28
73106;BME280;61559;50.476;15.588;2023-06-10T07:37:29;97563.17;;;20.33;66.27
73106;BME280;61559;50.476;15.588;2023-06-10T07:40:00;97567.05;;;20.42;65.85
73106;BME280;61559;50.476;15.588;2023-06-10T07:42:34;97571.94;;;20.49;66.14
73106;BME280;61559;50.476;15.588;2023-06-10T07:45:06;97570.16;;;20.55;66.28
73106;BME280;61559;50.476;15.588;2023-06-10T07:47:39;97572.57;;;20.58;65.73
73106;BME280;61559;50.476;15.588;2023-06-10T07:50:10;97565.77;;;20.58;65.36
73106;BME280;61559;50.476;15.588;2023-06-10T07:52:41;97567.79;;;20.60;65.52
73106;BME280;61559;50.476;15.588;2023-06-10T07:55:13;97562.63;;;20.61;64.82
73106;BME280;61559;50.476;15.588;2023-06-10T07:57:44;97563.60;;;20.62;64.87
73106;BME280;61559;50.476;15.588;2023-06-10T08:00:16;97564.96;;;20.64;64.69
73106;BME280;61559;50.476;15.588;2023-06-10T08:02:48;97563.46;;;20.68;63.60
73106;BME280;61559;50.476;15.588;2023-06-10T08:05:20;97574.01;;;20.65;63.44
73106;BME280;61559;50.476;15.588;2023-06-10T08:07:51;97572.29;;;20.66;63.22
73106;BME280;61559;50.476;15.588;2023-06-10T08:10:23;97565.27;;;20.71;63.37
73106;BME280;61559;50.476;15.588;2023-06-10T08:12:54;97568.73;;;20.77;63.01
73106;BME280;61559;50.476;15.588;2023-06-10T08:15:25;97568.26;;;20.82;62.43
73106;BME280;61559;50.476;15.588;2023-06-10T08:17:56;97568.58;;;20.89;62.89
73106;BME280;61559;50.476;15.588;2023-06-10T08:20:27;97572.17;;;20.96;61.66
73106;BME280;61559;50.476;15.588;2023-06-10T08:23:12;97571.59;;;21.04;61.64
73106;BME280;61559;50.476;15.588;2023-06-10T08:25:43;97577.28;;;21.16;61.87
73106;BME280;61559;50.476;15.588;2023-06-10T08:28:14;97579.19;;;21.26;61.28
73106;BME280;61559;50.476;15.588;2023-06-10T08:30:45;97586.08;;;21.28;59.89
73106;BME280;61559;50.476;15.588;2023-06-10T08:33:16;97588.33;;;21.31;60.48
73106;BME280;61559;50.476;15.588;2023-06-10T08:35:47;97593.64;;;21.40;60.68
73106;BME280;61559;50.476;15.588;2023-06-10T08:38:18;97590.80;;;21.50;60.89
73106;BME280;61559;50.476;15.588;2023-06-10T08:40:50;97589.50;;;21.63;61.14
73106;BME280;61559;50.476;15.588;2023-06-10T08:43:32;97592.61;;;21.77;60.93
73106;BME280;61559;50.476;15.588;2023-06-10T08:46:04;97598.44;;;21.90;59.59
73106;BME280;61559;50.476;15.588;2023-06-10T08:48:41;97602.33;;;21.91;58.93
73106;BME280;61559;50.476;15.588;2023-06-10T08:51:14;97600.67;;;21.94;59.17
73106;BME280;61559;50.476;15.588;2023-06-10T08:53:50;97604.79;;;21.95;59.07
73106;BME280;61559;50.476;15.588;2023-06-10T08:56:26;97603.36;;;21.96;58.74
73106;BME280;61559;50.476;15.588;2023-06-10T08:58:59;97605.10;;;21.92;58.86
73106;BME280;61559;50.476;15.588;2023-06-10T09:01:31;97605.27;;;21.82;58.70
73106;BME280;61559;50.476;15.588;2023-06-10T09:04:02;97609.62;;;21.74;58.63
73106;BME280;61559;50.476;15.588;2023-06-10T09:06:34;97609.13;;;21.64;58.46
73106;BME280;61559;50.476;15.588;2023-06-10T09:09:06;97605.23;;;21.62;58.93
73106;BME280;61559;50.476;15.588;2023-06-10T09:11:38;97606.44;;;21.64;59.04
73106;BME280;61559;50.476;15.588;2023-06-10T09:14:09;97603.96;;;21.64;58.75
73106;BME280;61559;50.476;15.588;2023-06-10T09:16:41;97606.56;;;21.68;59.11
73106;BME280;61559;50.476;15.588;2023-06-10T09:19:17;97603.86;;;21.71;58.94
73106;BME280;61559;50.476;15.588;2023-06-10T09:21:48;97601.45;;;21.74;59.13
73106;BME280;61559;50.476;15.588;2023-06-10T09:24:19;97600.98;;;21.85;59.14
73106;BME280;61559;50.476;15.588;2023-06-10T09:26:52;97602.34;;;21.85;58.32
73106;BME280;61559;50.476;15.588;2023-06-10T09:29:32;97612.68;;;21.81;58.06
73106;BME280;61559;50.476;15.588;2023-06-10T09:32:16;97608.41;;;21.79;58.53
73106;BME280;61559;50.476;15.588;2023-06-10T09:34:48;97607.44;;;21.84;58.49
73106;BME280;61559;50.476;15.588;2023-06-10T09:37:22;97605.63;;;21.86;57.66
73106;BME280;61559;50.476;15.588;2023-06-10T09:40:05;97607.13;;;21.87;56.75
73106;BME280;61559;50.476;15.588;2023-06-10T09:42:40;97599.42;;;21.86;57.04
73106;BME280;61559;50.476;15.588;2023-06-10T09:45:11;97597.69;;;21.90;57.36
73106;BME280;61559;50.476;15.588;2023-06-10T09:47:45;97595.13;;;21.94;57.97
73106;BME280;61559;50.476;15.588;2023-06-10T09:50:16;97594.60;;;22.05;59.04
73106;BME280;61559;50.476;15.588;2023-06-10T09:52:48;97593.88;;;22.22;59.49
73106;BME280;61559;50.476;15.588;2023-06-10T09:55:20;97593.75;;;22.39;58.29
73106;BME280;61559;50.476;15.588;2023-06-10T09:57:54;97593.76;;;22.52;58.60
73106;BME280;61559;50.476;15.588;2023-06-10T10:00:25;97592.77;;;22.65;57.52
73106;BME280;61559;50.476;15.588;2023-06-10T10:02:56;97596.63;;;22.76;56.51
73106;BME280;61559;50.476;15.588;2023-06-10T10:05:28;97587.92;;;22.79;54.64
73106;BME280;61559;50.476;15.588;2023-06-10T10:08:00;97591.48;;;22.87;55.58
73106;BME280;61559;50.476;15.588;2023-06-10T10:10:31;97597.67;;;22.77;54.14
73106;BME280;61559;50.476;15.588;2023-06-10T10:13:03;97598.48;;;22.64;54.25
73106;BME280;61559;50.476;15.588;2023-06-10T10:15:34;97596.17;;;22.50;54.30
73106;BME280;61559;50.476;15.588;2023-06-10T10:18:10;97594.11;;;22.43;55.04
73106;BME280;61559;50.476;15.588;2023-06-10T10:20:49;97591.95;;;22.37;55.36
73106;BME280;61559;50.476;15.588;2023-06-10T10:23:24;97595.66;;;22.29;56.00
73106;BME280;61559;50.476;15.588;2023-06-10T10:25:59;97597.91;;;22.25;55.51
73106;BME280;61559;50.476;15.588;2023-06-10T10:28:37;97595.06;;;22.29;55.66
73106;BME280;61559;50.476;15.588;2023-06-10T10:31:10;97589.72;;;22.36;55.89
73106;BME280;61559;50.476;15.588;2023-06-10T10:33:48;97587.48;;;22.47;56.25
73106;BME280;61559;50.476;15.588;2023-06-10T10:36:23;97589.65;;;22.60;55.44
73106;BME280;61559;50.476;15.588;2023-06-10T10:38:55;97592.20;;;22.76;56.12
73106;BME280;61559;50.476;15.588;2023-06-10T10:41:27;97592.97;;;22.90;54.52
73106;BME280;61559;50.476;15.588;2023-06-10T10:43:59;97594.38;;;22.94;53.31
73106;BME280;61559;50.476;15.588;2023-06-10T10:46:31;97594.11;;;22.99;52.82
73106;BME280;61559;50.476;15.588;2023-06-10T10:49:13;97595.29;;;23.05;52.98
73106;BME280;61559;50.476;15.588;2023-06-10T10:51:57;97587.18;;;23.14;53.12
73106;BME280;61559;50.476;15.588;2023-06-10T10:54:32;97578.02;;;23.25;52.64
73106;BME280;61559;50.476;15.588;2023-06-10T10:57:15;97573.52;;;23.49;52.06
73106;BME280;61559;50.476;15.588;2023-06-10T10:59:56;97569.48;;;23.67;51.79
73106;BME280;61559;50.476;15.588;2023-06-10T11:02:36;97572.73;;;23.79;50.63
73106;BME280;61559;50.476;15.588;2023-06-10T11:05:11;97573.77;;;23.82;50.15
73106;BME280;61559;50.476;15.588;2023-06-10T11:07:54;97568.85;;;23.77;49.75
73106;BME280;61559;50.476;15.588;2023-06-10T11:10:33;97570.46;;;23.73;49.60
73106;BME280;61559;50.476;15.588;2023-06-10T11:13:09;97571.95;;;23.67;49.16
73106;BME280;61559;50.476;15.588;2023-06-10T11:15:44;97573.02;;;23.58;48.62
73106;BME280;61559;50.476;15.588;2023-06-10T11:18:22;97573.41;;;23.56;48.86
73106;BME280;61559;50.476;15.588;2023-06-10T11:20:55;97568.66;;;23.58;48.41
73106;BME280;61559;50.476;15.588;2023-06-10T11:23:40;97563.54;;;23.59;48.21
73106;BME280;61559;50.476;15.588;2023-06-10T11:26:16;97559.86;;;23.74;49.64
73106;BME280;61559;50.476;15.588;2023-06-10T11:29:07;97559.52;;;23.93;50.21
73106;BME280;61559;50.476;15.588;2023-06-10T11:31:45;97573.44;;;23.98;48.85
73106;BME280;61559;50.476;15.588;2023-06-10T11:34:23;97573.65;;;23.78;48.38
73106;BME280;61559;50.476;15.588;2023-06-10T11:36:56;97577.64;;;23.51;49.67
73106;BME280;61559;50.476;15.588;2023-06-10T11:39:28;97569.52;;;23.36;50.40
73106;BME280;61559;50.476;15.588;2023-06-10T11:41:59;97570.41;;;23.19;50.77
73106;BME280;61559;50.476;15.588;2023-06-10T11:44:31;97571.05;;;23.04;51.27
73106;BME280;61559;50.476;15.588;2023-06-10T11:47:10;97574.07;;;22.89;52.78
73106;BME280;61559;50.476;15.588;2023-06-10T11:49:41;97573.08;;;22.76;52.49
73106;BME280;61559;50.476;15.588;2023-06-10T11:52:16;97568.16;;;22.69;52.77
73106;BME280;61559;50.476;15.588;2023-06-10T11:54:54;97569.89;;;22.69;53.14
73106;BME280;61559;50.476;15.588;2023-06-10T11:57:26;97569.55;;;22.77;53.53
73106;BME280;61559;50.476;15.588;2023-06-10T11:59:57;97553.86;;;22.81;52.55
73106;BME280;61559;50.476;15.588;2023-06-10T12:02:35;97553.03;;;22.93;53.10
73106;BME280;61559;50.476;15.588;2023-06-10T12:05:14;97558.44;;;23.13;53.90
73106;BME280;61559;50.476;15.588;2023-06-10T12:07:48;97558.01;;;23.30;51.99
73106;BME280;61559;50.476;15.588;2023-06-10T12:10:19;97560.33;;;23.31;51.61
73106;BME280;61559;50.476;15.588;2023-06-10T12:12:56;97555.80;;;23.33;51.19
73106;BME280;61559;50.476;15.588;2023-06-10T12:15:28;97551.06;;;23.34;50.74
73106;BME280;61559;50.476;15.588;2023-06-10T12:17:59;97551.73;;;23.35;51.28
73106;BME280;61559;50.476;15.588;2023-06-10T12:20:32;97551.18;;;23.44;52.30
73106;BME280;61559;50.476;15.588;2023-06-10T12:23:12;97556.35;;;23.57;49.95
73106;BME280;61559;50.476;15.588;2023-06-10T12:25:52;97545.80;;;23.60;49.32
73106;BME280;61559;50.476;15.588;2023-06-10T12:28:25;97544.95;;;23.62;50.05
73106;BME280;61559;50.476;15.588;2023-06-10T12:31:08;97544.83;;;23.67;49.19
73106;BME280;61559;50.476;15.588;2023-06-10T12:33:39;97545.05;;;23.75;49.33
73106;BME280;61559;50.476;15.588;2023-06-10T12:36:17;97538.13;;;23.69;48.48
73106;BME280;61559;50.476;15.588;2023-06-10T12:38:48;97533.56;;;23.74;49.56
73106;BME280;61559;50.476;15.588;2023-06-10T12:41:22;97531.98;;;23.80;49.25
73106;BME280;61559;50.476;15.588;2023-06-10T12:43:53;97529.17;;;23.84;48.29
73106;BME280;61559;50.476;15.588;2023-06-10T12:46:24;97532.42;;;23.90;48.29
73106;BME280;61559;50.476;15.588;2023-06-10T12:48:55;97534.23;;;23.88;46.79
73106;BME280;61559;50.476;15.588;2023-06-10T12:51:26;97531.00;;;23.89;47.29
73106;BME280;61559;50.476;15.588;2023-06-10T12:53:57;97527.11;;;23.94;48.48
73106;BME280;61559;50.476;15.588;2023-06-10T12:56:30;97529.30;;;24.00;46.79
73106;BME280;61559;50.476;15.588;2023-06-10T12:59:02;97526.09;;;23.98;46.75
73106;BME280;61559;50.476;15.588;2023-06-10T13:01:33;97522.58;;;23.96;47.07
73106;BME280;61559;50.476;15.588;2023-06-10T13:04:05;97519.09;;;23.92;46.72
73106;BME280;61559;50.476;15.588;2023-06-10T13:06:37;97518.71;;;23.99;47.08
73106;BME280;61559;50.476;15.588;2023-06-10T13:09:10;97514.50;;;24.05;46.70
73106;BME280;61559;50.476;15.588;2023-06-10T13:11:41;97526.06;;;24.00;46.44
73106;BME280;61559;50.476;15.588;2023-06-10T13:14:13;97526.65;;;24.02;47.48
73106;BME280;61559;50.476;15.588;2023-06-10T13:16:44;97532.25;;;23.98;46.42
73106;BME280;61559;50.476;15.588;2023-06-10T13:19:18;97533.61;;;23.97;46.87